sensor_id;sensor_type;location;lat;lon;timestamp;P1;durP1;ratioP1;P2;durP2;ratioP2
18657;SDS011;9458;50.942;5.074;2023-01-16T00:00:36;5.28;;;0.80;;
18657;SDS011;9458;50.942;5.074;2023-01-16T00:03:05;3.17;;;0.50;;
18657;SDS011;9458;50.942;5.074;2023-01-16T00:05:36;1.40;;;0.70;;
18657;SDS011;9458;50.942;5.074;2023-01-16T00:08:04;8.03;;;0.90;;
18657;SDS011;9458;50.942;5.074;2023-01-16T00:10:42;3.55;;;0.68;;
18657;SDS011;9458;50.942;5.074;2023-01-16T00:13:19;0.80;;;0.70;;
18657;SDS011;9458;50.942;5.074;2023-01-16T00:15:49;1.65;;;0.77;;
18657;SDS011;9458;50.942;5.074;2023-01-16T00:18:18;2.35;;;0.80;;
18657;SDS011;9458;50.942;5.074;2023-01-16T00:20:46;3.83;;;1.13;;
18657;SDS011;9458;50.942;5.074;2023-01-16T00:23:15;3.37;;;1.07;;
18657;SDS011;9458;50.942;5.074;2023-01-16T00:25:45;1.58;;;0.50;;
18657;SDS011;9458;50.942;5.074;2023-01-16T00:28:13;1.65;;;0.70;;
18657;SDS011;9458;50.942;5.074;2023-01-16T00:30:42;3.67;;;0.77;;
18657;SDS011;9458;50.942;5.074;2023-01-16T00:33:10;2.67;;;0.70;;
18657;SDS011;9458;50.942;5.074;2023-01-16T00:35:38;2.70;;;0.63;;
18657;SDS011;9458;50.942;5.074;2023-01-16T00:38:07;2.15;;;0.50;;
18657;SDS011;9458;50.942;5.074;2023-01-16T00:40:35;1.80;;;0.50;;
18657;SDS011;9458;50.942;5.074;2023-01-16T00:43:06;2.72;;;0.60;;
18657;SDS011;9458;50.942;5.074;2023-01-16T00:45:34;1.00;;;0.50;;
18657;SDS011;9458;50.942;5.074;2023-01-16T00:48:02;2.83;;;0.60;;
18657;SDS011;9458;50.942;5.074;2023-01-16T00:50:30;4.63;;;0.60;;
18657;SDS011;9458;50.942;5.074;2023-01-16T00:52:58;2.42;;;0.63;;
18657;SDS011;9458;50.942;5.074;2023-01-16T00:55:26;1.13;;;0.60;;
18657;SDS011;9458;50.942;5.074;2023-01-16T00:57:54;3.75;;;0.70;;
18657;SDS011;9458;50.942;5.074;2023-01-16T01:00:23;1.95;;;0.73;;
18657;SDS011;9458;50.942;5.074;2023-01-16T01:02:55;2.65;;;0.50;;
18657;SDS011;9458;50.942;5.074;2023-01-16T01:05:25;2.15;;;0.55;;
18657;SDS011;9458;50.942;5.074;2023-01-16T01:08:01;3.80;;;0.73;;
18657;SDS011;9458;50.942;5.074;2023-01-16T01:10:31;3.03;;;0.80;;
18657;SDS011;9458;50.942;5.074;2023-01-16T01:13:04;1.43;;;0.53;;
18657;SDS011;9458;50.942;5.074;2023-01-16T01:15:36;0.83;;;0.47;;
18657;SDS011;9458;50.942;5.074;2023-01-16T01:18:09;5.53;;;1.00;;
18657;SDS011;9458;50.942;5.074;2023-01-16T01:20:41;4.47;;;0.90;;
18657;SDS011;9458;50.942;5.074;2023-01-16T01:23:12;5.03;;;1.15;;
18657;SDS011;9458;50.942;5.074;2023-01-16T01:25:45;6.03;;;0.88;;
18657;SDS011;9458;50.942;5.074;2023-01-16T01:28:14;3.22;;;0.93;;
18657;SDS011;9458;50.942;5.074;2023-01-16T01:30:45;3.20;;;0.80;;
18657;SDS011;9458;50.942;5.074;2023-01-16T01:33:13;4.13;;;0.90;;
18657;SDS011;9458;50.942;5.074;2023-01-16T01:35:40;4.07;;;1.00;;
18657;SDS011;9458;50.942;5.074;2023-01-16T01:38:08;5.57;;;0.80;;
18657;SDS011;9458;50.942;5.074;2023-01-16T01:40:36;4.57;;;1.57;;
18657;SDS011;9458;50.942;5.074;2023-01-16T01:43:12;2.40;;;0.70;;
18657;SDS011;9458;50.942;5.074;2023-01-16T01:45:43;3.15;;;0.82;;
18657;SDS011;9458;50.942;5.074;2023-01-16T01:48:22;1.23;;;0.67;;
18657;SDS011;9458;50.942;5.074;2023-01-16T01:50:56;2.23;;;0.60;;
18657;SDS011;9458;50.942;5.074;2023-01-16T01:53:29;2.90;;;0.80;;
18657;SDS011;9458;50.942;5.074;2023-01-16T01:56:01;2.00;;;0.60;;
18657;SDS011;9458;50.942;5.074;2023-01-16T01:58:34;4.17;;;0.87;;
18657;SDS011;9458;50.942;5.074;2023-01-16T02:01:06;2.70;;;0.83;;
18657;SDS011;9458;50.942;5.074;2023-01-16T02:03:42;1.90;;;0.53;;
18657;SDS011;9458;50.942;5.074;2023-01-16T02:06:17;4.10;;;1.33;;
18657;SDS011;9458;50.942;5.074;2023-01-16T02:08:48;2.27;;;0.80;;
18657;SDS011;9458;50.942;5.074;2023-01-16T02:11:23;3.10;;;0.90;;
18657;SDS011;9458;50.942;5.074;2023-01-16T02:13:56;8.27;;;1.00;;
18657;SDS011;9458;50.942;5.074;2023-01-16T02:16:28;2.42;;;0.80;;
18657;SDS011;9458;50.942;5.074;2023-01-16T02:19:15;3.25;;;0.98;;
18657;SDS011;9458;50.942;5.074;2023-01-16T02:25:05;3.10;;;1.00;;
18657;SDS011;9458;50.942;5.074;2023-01-16T02:28:03;4.80;;;1.17;;
18657;SDS011;9458;50.942;5.074;2023-01-16T02:31:02;3.90;;;0.90;;
18657;SDS011;9458;50.942;5.074;2023-01-16T02:33:39;1.33;;;0.65;;
18657;SDS011;9458;50.942;5.074;2023-01-16T02:36:16;4.30;;;0.80;;
18657;SDS011;9458;50.942;5.074;2023-01-16T02:38:51;4.05;;;1.00;;
18657;SDS011;9458;50.942;5.074;2023-01-16T02:41:30;3.57;;;0.83;;
18657;SDS011;9458;50.942;5.074;2023-01-16T02:44:09;5.40;;;1.27;;
18657;SDS011;9458;50.942;5.074;2023-01-16T02:46:47;5.17;;;0.90;;
18657;SDS011;9458;50.942;5.074;2023-01-16T02:49:28;1.23;;;0.57;;
18657;SDS011;9458;50.942;5.074;2023-01-16T02:52:01;3.20;;;0.90;;
18657;SDS011;9458;50.942;5.074;2023-01-16T02:54:39;2.67;;;0.65;;
18657;SDS011;9458;50.942;5.074;2023-01-16T02:57:12;2.28;;;0.90;;
18657;SDS011;9458;50.942;5.074;2023-01-16T02:59:44;3.97;;;1.10;;
18657;SDS011;9458;50.942;5.074;2023-01-16T03:02:15;4.13;;;1.10;;
18657;SDS011;9458;50.942;5.074;2023-01-16T03:04:44;4.60;;;0.93;;
18657;SDS011;9458;50.942;5.074;2023-01-16T03:07:25;2.75;;;0.90;;
18657;SDS011;9458;50.942;5.074;2023-01-16T03:10:18;3.58;;;1.20;;
18657;SDS011;9458;50.942;5.074;2023-01-16T03:12:59;4.85;;;1.02;;
18657;SDS011;9458;50.942;5.074;2023-01-16T03:15:40;1.38;;;0.47;;
18657;SDS011;9458;50.942;5.074;2023-01-16T03:18:20;4.25;;;0.68;;
18657;SDS011;9458;50.942;5.074;2023-01-16T03:20:58;1.05;;;0.70;;
18657;SDS011;9458;50.942;5.074;2023-01-16T03:23:34;3.00;;;0.73;;
18657;SDS011;9458;50.942;5.074;2023-01-16T03:26:09;3.70;;;0.90;;
18657;SDS011;9458;50.942;5.074;2023-01-16T03:28:46;5.30;;;0.60;;
18657;SDS011;9458;50.942;5.074;2023-01-16T03:31:27;2.33;;;1.10;;
18657;SDS011;9458;50.942;5.074;2023-01-16T03:34:05;2.50;;;1.00;;
18657;SDS011;9458;50.942;5.074;2023-01-16T03:36:41;3.65;;;0.90;;
18657;SDS011;9458;50.942;5.074;2023-01-16T03:39:14;6.32;;;0.77;;
18657;SDS011;9458;50.942;5.074;2023-01-16T03:41:45;6.15;;;0.93;;
18657;SDS011;9458;50.942;5.074;2023-01-16T03:44:19;2.13;;;1.00;;
18657;SDS011;9458;50.942;5.074;2023-01-16T03:46:52;6.65;;;0.80;;
18657;SDS011;9458;50.942;5.074;2023-01-16T03:49:21;3.95;;;0.85;;
18657;SDS011;9458;50.942;5.074;2023-01-16T03:51:54;2.85;;;0.80;;
18657;SDS011;9458;50.942;5.074;2023-01-16T03:54:28;2.10;;;0.80;;
18657;SDS011;9458;50.942;5.074;2023-01-16T03:57:05;3.05;;;0.70;;
18657;SDS011;9458;50.942;5.074;2023-01-16T03:59:36;3.03;;;0.73;;
18657;SDS011;9458;50.942;5.074;2023-01-16T04:02:08;3.88;;;0.65;;
18657;SDS011;9458;50.942;5.074;2023-01-16T04:04:41;3.38;;;1.10;;
18657;SDS011;9458;50.942;5.074;2023-01-16T04:07:15;6.97;;;1.20;;
18657;SDS011;9458;50.942;5.074;2023-01-16T04:09:48;3.38;;;0.90;;
18657;SDS011;9458;50.942;5.074;2023-01-16T04:12:21;4.13;;;1.02;;
18657;SDS011;9458;50.942;5.074;2023-01-16T04:14:53;6.03;;;1.10;;
18657;SDS011;9458;50.942;5.074;2023-01-16T04:17:23;7.50;;;0.98;;
18657;SDS011;9458;50.942;5.074;2023-01-16T04:19:53;3.50;;;0.90;;
18657;SDS011;9458;50.942;5.074;2023-01-16T04:22:23;5.45;;;0.73;;
18657;SDS011;9458;50.942;5.074;2023-01-16T04:24:53;1.65;;;0.60;;
18657;SDS011;9458;50.942;5.074;2023-01-16T04:27:23;3.10;;;0.57;;
18657;SDS011;9458;50.942;5.074;2023-01-16T04:29:52;3.58;;;0.82;;
18657;SDS011;9458;50.942;5.074;2023-01-16T04:32:20;4.47;;;0.93;;
18657;SDS011;9458;50.942;5.074;2023-01-16T04:34:48;4.53;;;0.73;;
18657;SDS011;9458;50.942;5.074;2023-01-16T04:37:18;2.67;;;0.85;;
18657;SDS011;9458;50.942;5.074;2023-01-16T04:39:46;1.58;;;0.55;;
18657;SDS011;9458;50.942;5.074;2023-01-16T04:42:15;2.78;;;0.80;;
18657;SDS011;9458;50.942;5.074;2023-01-16T04:44:42;5.53;;;0.57;;
18657;SDS011;9458;50.942;5.074;2023-01-16T04:47:10;5.63;;;0.80;;
18657;SDS011;9458;50.942;5.074;2023-01-16T04:49:38;3.83;;;0.80;;
18657;SDS011;9458;50.942;5.074;2023-01-16T04:52:06;4.47;;;0.93;;
18657;SDS011;9458;50.942;5.074;2023-01-16T04:54:36;3.17;;;0.70;;
18657;SDS011;9458;50.942;5.074;2023-01-16T04:57:04;1.33;;;0.57;;
18657;SDS011;9458;50.942;5.074;2023-01-16T04:59:33;1.70;;;0.60;;
18657;SDS011;9458;50.942;5.074;2023-01-16T05:02:01;4.03;;;0.80;;
18657;SDS011;9458;50.942;5.074;2023-01-16T05:04:28;1.42;;;0.63;;
18657;SDS011;9458;50.942;5.074;2023-01-16T05:06:57;6.63;;;0.93;;
18657;SDS011;9458;50.942;5.074;2023-01-16T05:09:24;6.32;;;1.08;;
18657;SDS011;9458;50.942;5.074;2023-01-16T05:11:54;3.97;;;0.80;;
18657;SDS011;9458;50.942;5.074;2023-01-16T05:14:22;1.63;;;1.00;;
18657;SDS011;9458;50.942;5.074;2023-01-16T05:16:49;4.80;;;1.00;;
18657;SDS011;9458;50.942;5.074;2023-01-16T05:19:17;2.35;;;0.52;;
18657;SDS011;9458;50.942;5.074;2023-01-16T05:21:45;7.50;;;1.08;;
18657;SDS011;9458;50.942;5.074;2023-01-16T05:24:14;6.13;;;0.93;;
18657;SDS011;9458;50.942;5.074;2023-01-16T05:26:41;3.42;;;0.70;;
18657;SDS011;9458;50.942;5.074;2023-01-16T05:29:10;3.45;;;0.80;;
18657;SDS011;9458;50.942;5.074;2023-01-16T05:31:38;5.47;;;0.88;;
18657;SDS011;9458;50.942;5.074;2023-01-16T05:34:07;3.53;;;0.90;;
18657;SDS011;9458;50.942;5.074;2023-01-16T05:36:35;3.60;;;0.73;;
18657;SDS011;9458;50.942;5.074;2023-01-16T05:39:03;4.50;;;1.10;;
18657;SDS011;9458;50.942;5.074;2023-01-16T05:41:31;2.03;;;0.45;;
18657;SDS011;9458;50.942;5.074;2023-01-16T05:43:59;2.88;;;0.70;;
18657;SDS011;9458;50.942;5.074;2023-01-16T05:46:29;4.65;;;0.82;;
18657;SDS011;9458;50.942;5.074;2023-01-16T05:48:57;1.90;;;0.80;;
18657;SDS011;9458;50.942;5.074;2023-01-16T05:51:24;2.80;;;0.85;;
18657;SDS011;9458;50.942;5.074;2023-01-16T05:53:52;3.45;;;0.90;;
18657;SDS011;9458;50.942;5.074;2023-01-16T05:56:20;2.72;;;0.57;;
18657;SDS011;9458;50.942;5.074;2023-01-16T05:58:49;3.42;;;0.80;;
18657;SDS011;9458;50.942;5.074;2023-01-16T06:01:17;1.90;;;0.85;;
18657;SDS011;9458;50.942;5.074;2023-01-16T06:03:47;5.55;;;0.80;;
18657;SDS011;9458;50.942;5.074;2023-01-16T06:06:15;4.57;;;0.85;;
18657;SDS011;9458;50.942;5.074;2023-01-16T06:08:43;2.90;;;0.60;;
18657;SDS011;9458;50.942;5.074;2023-01-16T06:11:10;5.55;;;0.70;;
18657;SDS011;9458;50.942;5.074;2023-01-16T06:13:37;2.88;;;0.68;;
18657;SDS011;9458;50.942;5.074;2023-01-16T06:16:06;5.03;;;0.60;;
18657;SDS011;9458;50.942;5.074;2023-01-16T06:18:34;3.45;;;0.40;;
18657;SDS011;9458;50.942;5.074;2023-01-16T06:21:04;2.45;;;0.80;;
18657;SDS011;9458;50.942;5.074;2023-01-16T06:23:32;3.03;;;0.70;;
18657;SDS011;9458;50.942;5.074;2023-01-16T06:25:59;3.33;;;0.88;;
18657;SDS011;9458;50.942;5.074;2023-01-16T06:28:28;2.03;;;0.80;;
18657;SDS011;9458;50.942;5.074;2023-01-16T06:30:56;8.50;;;0.85;;
18657;SDS011;9458;50.942;5.074;2023-01-16T06:33:24;3.17;;;0.57;;
18657;SDS011;9458;50.942;5.074;2023-01-16T06:35:52;3.92;;;0.98;;
18657;SDS011;9458;50.942;5.074;2023-01-16T06:38:22;1.80;;;0.50;;
18657;SDS011;9458;50.942;5.074;2023-01-16T06:40:51;2.63;;;0.60;;
18657;SDS011;9458;50.942;5.074;2023-01-16T06:43:21;1.10;;;0.40;;
18657;SDS011;9458;50.942;5.074;2023-01-16T06:45:49;3.88;;;0.80;;
18657;SDS011;9458;50.942;5.074;2023-01-16T06:48:16;1.55;;;0.50;;
18657;SDS011;9458;50.942;5.074;2023-01-16T06:50:44;2.45;;;1.05;;
18657;SDS011;9458;50.942;5.074;2023-01-16T06:53:12;2.85;;;0.57;;
18657;SDS011;9458;50.942;5.074;2023-01-16T06:55:41;2.63;;;0.52;;
18657;SDS011;9458;50.942;5.074;2023-01-16T06:58:09;2.55;;;0.47;;
18657;SDS011;9458;50.942;5.074;2023-01-16T07:00:37;1.80;;;0.65;;
18657;SDS011;9458;50.942;5.074;2023-01-16T07:03:07;1.35;;;0.40;;
18657;SDS011;9458;50.942;5.074;2023-01-16T07:05:39;0.70;;;0.50;;
18657;SDS011;9458;50.942;5.074;2023-01-16T07:08:09;0.30;;;0.20;;
18657;SDS011;9458;50.942;5.074;2023-01-16T07:10:36;1.17;;;0.50;;
18657;SDS011;9458;50.942;5.074;2023-01-16T07:13:07;1.13;;;0.50;;
18657;SDS011;9458;50.942;5.074;2023-01-16T07:15:36;1.23;;;0.45;;
18657;SDS011;9458;50.942;5.074;2023-01-16T07:18:22;0.80;;;0.30;;
18657;SDS011;9458;50.942;5.074;2023-01-16T07:21:08;2.03;;;0.40;;
18657;SDS011;9458;50.942;5.074;2023-01-16T07:23:57;0.20;;;0.20;;
18657;SDS011;9458;50.942;5.074;2023-01-16T07:26:27;0.40;;;0.30;;
18657;SDS011;9458;50.942;5.074;2023-01-16T07:28:57;0.75;;;0.30;;
18657;SDS011;9458;50.942;5.074;2023-01-16T07:31:26;0.77;;;0.30;;
18657;SDS011;9458;50.942;5.074;2023-01-16T07:33:55;0.17;;;0.10;;
18657;SDS011;9458;50.942;5.074;2023-01-16T07:36:22;1.98;;;0.40;;
18657;SDS011;9458;50.942;5.074;2023-01-16T07:38:52;0.93;;;0.40;;
18657;SDS011;9458;50.942;5.074;2023-01-16T07:41:22;2.10;;;0.60;;
18657;SDS011;9458;50.942;5.074;2023-01-16T07:43:49;1.92;;;0.57;;
18657;SDS011;9458;50.942;5.074;2023-01-16T07:46:21;1.83;;;0.50;;
18657;SDS011;9458;50.942;5.074;2023-01-16T07:48:49;0.20;;;0.20;;
18657;SDS011;9458;50.942;5.074;2023-01-16T07:51:19;0.40;;;0.30;;
18657;SDS011;9458;50.942;5.074;2023-01-16T07:53:47;0.40;;;0.20;;
18657;SDS011;9458;50.942;5.074;2023-01-16T07:56:16;0.68;;;0.43;;
18657;SDS011;9458;50.942;5.074;2023-01-16T07:58:44;0.30;;;0.30;;
18657;SDS011;9458;50.942;5.074;2023-01-16T08:01:12;0.25;;;0.25;;
18657;SDS011;9458;50.942;5.074;2023-01-16T08:03:43;0.68;;;0.30;;
18657;SDS011;9458;50.942;5.074;2023-01-16T08:06:11;0.20;;;0.20;;
18657;SDS011;9458;50.942;5.074;2023-01-16T08:08:39;0.10;;;0.10;;
18657;SDS011;9458;50.942;5.074;2023-01-16T08:11:06;0.20;;;0.20;;
18657;SDS011;9458;50.942;5.074;2023-01-16T08:13:48;0.10;;;0.10;;
18657;SDS011;9458;50.942;5.074;2023-01-16T08:16:15;0.30;;;0.28;;
18657;SDS011;9458;50.942;5.074;2023-01-16T08:18:45;0.40;;;0.20;;
18657;SDS011;9458;50.942;5.074;2023-01-16T08:21:14;0.10;;;0.10;;
18657;SDS011;9458;50.942;5.074;2023-01-16T08:23:43;0.10;;;0.10;;
18657;SDS011;9458;50.942;5.074;2023-01-16T08:26:13;0.15;;;0.15;;
18657;SDS011;9458;50.942;5.074;2023-01-16T08:28:42;0.17;;;0.17;;
18657;SDS011;9458;50.942;5.074;2023-01-16T08:31:10;0.10;;;0.10;;
18657;SDS011;9458;50.942;5.074;2023-01-16T08:33:39;0.40;;;0.28;;
18657;SDS011;9458;50.942;5.074;2023-01-16T08:36:10;0.47;;;0.20;;
18657;SDS011;9458;50.942;5.074;2023-01-16T08:38:41;0.10;;;0.10;;
18657;SDS011;9458;50.942;5.074;2023-01-16T08:41:09;0.20;;;0.15;;
18657;SDS011;9458;50.942;5.074;2023-01-16T08:43:51;0.10;;;0.10;;
18657;SDS011;9458;50.942;5.074;2023-01-16T08:46:41;0.10;;;0.10;;
18657;SDS011;9458;50.942;5.074;2023-01-16T08:49:29;0.03;;;0.03;;
18657;SDS011;9458;50.942;5.074;2023-01-16T08:52:17;0.10;;;0.10;;
18657;SDS011;9458;50.942;5.074;2023-01-16T08:54:45;0.20;;;0.20;;
18657;SDS011;9458;50.942;5.074;2023-01-16T08:57:14;1.10;;;0.17;;
18657;SDS011;9458;50.942;5.074;2023-01-16T08:59:43;0.30;;;0.20;;
18657;SDS011;9458;50.942;5.074;2023-01-16T09:02:11;0.20;;;0.17;;
18657;SDS011;9458;50.942;5.074;2023-01-16T09:04:40;0.30;;;0.20;;
18657;SDS011;9458;50.942;5.074;2023-01-16T09:07:09;0.35;;;0.13;;
18657;SDS011;9458;50.942;5.074;2023-01-16T09:09:38;0.20;;;0.20;;
18657;SDS011;9458;50.942;5.074;2023-01-16T09:12:07;0.55;;;0.20;;
18657;SDS011;9458;50.942;5.074;2023-01-16T09:14:53;0.30;;;0.30;;
18657;SDS011;9458;50.942;5.074;2023-01-16T09:17:23;0.75;;;0.40;;
18657;SDS011;9458;50.942;5.074;2023-01-16T09:19:52;0.08;;;0.08;;
18657;SDS011;9458;50.942;5.074;2023-01-16T09:22:21;0.20;;;0.20;;
18657;SDS011;9458;50.942;5.074;2023-01-16T09:24:50;0.22;;;0.20;;
18657;SDS011;9458;50.942;5.074;2023-01-16T09:27:18;0.47;;;0.28;;
18657;SDS011;9458;50.942;5.074;2023-01-16T09:29:50;0.20;;;0.20;;
18657;SDS011;9458;50.942;5.074;2023-01-16T09:32:19;0.30;;;0.30;;
18657;SDS011;9458;50.942;5.074;2023-01-16T09:34:47;0.40;;;0.32;;
18657;SDS011;9458;50.942;5.074;2023-01-16T09:37:16;0.65;;;0.65;;
18657;SDS011;9458;50.942;5.074;2023-01-16T09:39:45;1.23;;;0.47;;
18657;SDS011;9458;50.942;5.074;2023-01-16T09:42:21;0.90;;;0.40;;
18657;SDS011;9458;50.942;5.074;2023-01-16T09:45:20;1.17;;;0.40;;
18657;SDS011;9458;50.942;5.074;2023-01-16T09:47:50;0.40;;;0.30;;
18657;SDS011;9458;50.942;5.074;2023-01-16T09:50:25;1.00;;;0.30;;
18657;SDS011;9458;50.942;5.074;2023-01-16T09:52:58;0.20;;;0.20;;
18657;SDS011;9458;50.942;5.074;2023-01-16T09:55:45;0.28;;;0.20;;
18657;SDS011;9458;50.942;5.074;2023-01-16T09:58:35;1.23;;;0.20;;
18657;SDS011;9458;50.942;5.074;2023-01-16T10:01:08;2.65;;;0.40;;
18657;SDS011;9458;50.942;5.074;2023-01-16T10:03:39;0.65;;;0.38;;
18657;SDS011;9458;50.942;5.074;2023-01-16T10:06:12;0.88;;;0.30;;
18657;SDS011;9458;50.942;5.074;2023-01-16T10:08:52;0.28;;;0.20;;
18657;SDS011;9458;50.942;5.074;2023-01-16T10:11:32;0.20;;;0.20;;
18657;SDS011;9458;50.942;5.074;2023-01-16T10:14:10;0.30;;;0.30;;
18657;SDS011;9458;50.942;5.074;2023-01-16T10:16:49;0.65;;;0.40;;
18657;SDS011;9458;50.942;5.074;2023-01-16T10:19:34;0.32;;;0.32;;
18657;SDS011;9458;50.942;5.074;2023-01-16T10:22:16;0.50;;;0.20;;
18657;SDS011;9458;50.942;5.074;2023-01-16T10:24:56;0.30;;;0.30;;
18657;SDS011;9458;50.942;5.074;2023-01-16T10:27:36;0.80;;;0.50;;
18657;SDS011;9458;50.942;5.074;2023-01-16T10:30:17;0.60;;;0.30;;
18657;SDS011;9458;50.942;5.074;2023-01-16T10:32:52;0.70;;;0.28;;
18657;SDS011;9458;50.942;5.074;2023-01-16T10:35:29;0.35;;;0.35;;
18657;SDS011;9458;50.942;5.074;2023-01-16T10:38:06;0.15;;;0.15;;
18657;SDS011;9458;50.942;5.074;2023-01-16T10:40:43;0.40;;;0.28;;
18657;SDS011;9458;50.942;5.074;2023-01-16T10:43:14;0.20;;;0.20;;
18657;SDS011;9458;50.942;5.074;2023-01-16T10:46:18;0.30;;;0.20;;
18657;SDS011;9458;50.942;5.074;2023-01-16T10:49:07;0.20;;;0.20;;
18657;SDS011;9458;50.942;5.074;2023-01-16T10:51:54;0.77;;;0.20;;
18657;SDS011;9458;50.942;5.074;2023-01-16T10:54:24;0.52;;;0.13;;
18657;SDS011;9458;50.942;5.074;2023-01-16T10:56:51;0.63;;;0.35;;
18657;SDS011;9458;50.942;5.074;2023-01-16T10:59:24;0.20;;;0.20;;
18657;SDS011;9458;50.942;5.074;2023-01-16T11:01:55;0.22;;;0.22;;
18657;SDS011;9458;50.942;5.074;2023-01-16T11:04:37;0.30;;;0.30;;
18657;SDS011;9458;50.942;5.074;2023-01-16T11:07:12;1.50;;;0.30;;
18657;SDS011;9458;50.942;5.074;2023-01-16T11:09:44;0.30;;;0.30;;
18657;SDS011;9458;50.942;5.074;2023-01-16T11:12:23;0.43;;;0.17;;
18657;SDS011;9458;50.942;5.074;2023-01-16T11:15:14;0.20;;;0.20;;
18657;SDS011;9458;50.942;5.074;2023-01-16T11:18:07;0.10;;;0.10;;
18657;SDS011;9458;50.942;5.074;2023-01-16T11:20:56;0.30;;;0.20;;
18657;SDS011;9458;50.942;5.074;2023-01-16T11:23:27;0.20;;;0.20;;
18657;SDS011;9458;50.942;5.074;2023-01-16T11:26:04;0.10;;;0.10;;
18657;SDS011;9458;50.942;5.074;2023-01-16T11:28:33;0.10;;;0.10;;
18657;SDS011;9458;50.942;5.074;2023-01-16T11:31:02;0.10;;;0.10;;
18657;SDS011;9458;50.942;5.074;2023-01-16T11:33:38;0.20;;;0.20;;
18657;SDS011;9458;50.942;5.074;2023-01-16T11:36:09;0.10;;;0.10;;
18657;SDS011;9458;50.942;5.074;2023-01-16T11:38:38;0.20;;;0.20;;
18657;SDS011;9458;50.942;5.074;2023-01-16T11:41:11;0.17;;;0.10;;
18657;SDS011;9458;50.942;5.074;2023-01-16T11:43:43;0.28;;;0.25;;
18657;SDS011;9458;50.942;5.074;2023-01-16T11:46:30;0.00;;;0.00;;
18657;SDS011;9458;50.942;5.074;2023-01-16T11:49:03;0.43;;;0.20;;
18657;SDS011;9458;50.942;5.074;2023-01-16T11:51:39;0.10;;;0.10;;
18657;SDS011;9458;50.942;5.074;2023-01-16T11:54:11;0.80;;;0.10;;
18657;SDS011;9458;50.942;5.074;2023-01-16T11:56:44;0.30;;;0.15;;
18657;SDS011;9458;50.942;5.074;2023-01-16T12:02:20;0.15;;;0.15;;
18657;SDS011;9458;50.942;5.074;2023-01-16T12:05:13;0.63;;;0.10;;
18657;SDS011;9458;50.942;5.074;2023-01-16T12:08:11;0.20;;;0.20;;
18657;SDS011;9458;50.942;5.074;2023-01-16T12:10:51;0.10;;;0.10;;
18657;SDS011;9458;50.942;5.074;2023-01-16T12:13:29;0.10;;;0.10;;
18657;SDS011;9458;50.942;5.074;2023-01-16T12:16:25;0.10;;;0.10;;
18657;SDS011;9458;50.942;5.074;2023-01-16T12:19:08;0.10;;;0.10;;
18657;SDS011;9458;50.942;5.074;2023-01-16T12:21:57;0.10;;;0.10;;
18657;SDS011;9458;50.942;5.074;2023-01-16T12:24:35;0.13;;;0.10;;
18657;SDS011;9458;50.942;5.074;2023-01-16T12:27:11;0.45;;;0.40;;
18657;SDS011;9458;50.942;5.074;2023-01-16T12:29:53;0.28;;;0.10;;
18657;SDS011;9458;50.942;5.074;2023-01-16T12:32:35;0.10;;;0.10;;
18657;SDS011;9458;50.942;5.074;2023-01-16T12:35:15;0.20;;;0.20;;
18657;SDS011;9458;50.942;5.074;2023-01-16T12:37:59;0.10;;;0.10;;
18657;SDS011;9458;50.942;5.074;2023-01-16T12:40:37;0.20;;;0.20;;
18657;SDS011;9458;50.942;5.074;2023-01-16T12:43:45;0.43;;;0.20;;
18657;SDS011;9458;50.942;5.074;2023-01-16T12:46:24;0.20;;;0.20;;
18657;SDS011;9458;50.942;5.074;2023-01-16T12:49:01;0.20;;;0.20;;
18657;SDS011;9458;50.942;5.074;2023-01-16T12:51:52;0.10;;;0.10;;
18657;SDS011;9458;50.942;5.074;2023-01-16T12:54:33;0.40;;;0.30;;
18657;SDS011;9458;50.942;5.074;2023-01-16T12:57:16;1.15;;;0.30;;
18657;SDS011;9458;50.942;5.074;2023-01-16T13:00:02;0.30;;;0.30;;
18657;SDS011;9458;50.942;5.074;2023-01-16T13:02:36;0.40;;;0.40;;
18657;SDS011;9458;50.942;5.074;2023-01-16T13:05:12;0.93;;;0.50;;
18657;SDS011;9458;50.942;5.074;2023-01-16T13:07:46;0.35;;;0.30;;
18657;SDS011;9458;50.942;5.074;2023-01-16T13:10:21;0.43;;;0.30;;
18657;SDS011;9458;50.942;5.074;2023-01-16T13:13:11;0.28;;;0.28;;
18657;SDS011;9458;50.942;5.074;2023-01-16T13:15:54;0.20;;;0.20;;
18657;SDS011;9458;50.942;5.074;2023-01-16T13:18:27;0.15;;;0.15;;
18657;SDS011;9458;50.942;5.074;2023-01-16T13:20:58;0.10;;;0.10;;
18657;SDS011;9458;50.942;5.074;2023-01-16T13:23:30;0.10;;;0.10;;
18657;SDS011;9458;50.942;5.074;2023-01-16T13:26:05;0.17;;;0.10;;
18657;SDS011;9458;50.942;5.074;2023-01-16T13:28:38;0.30;;;0.20;;
18657;SDS011;9458;50.942;5.074;2023-01-16T13:31:13;0.20;;;0.20;;
18657;SDS011;9458;50.942;5.074;2023-01-16T13:33:48;0.45;;;0.20;;
18657;SDS011;9458;50.942;5.074;2023-01-16T13:36:29;0.22;;;0.22;;
18657;SDS011;9458;50.942;5.074;2023-01-16T13:42:19;0.20;;;0.20;;
18657;SDS011;9458;50.942;5.074;2023-01-16T13:44:52;1.77;;;0.38;;
18657;SDS011;9458;50.942;5.074;2023-01-16T13:47:41;0.20;;;0.20;;
18657;SDS011;9458;50.942;5.074;2023-01-16T13:50:14;0.35;;;0.20;;
18657;SDS011;9458;50.942;5.074;2023-01-16T13:52:48;0.50;;;0.40;;
18657;SDS011;9458;50.942;5.074;2023-01-16T13:55:21;0.30;;;0.30;;
18657;SDS011;9458;50.942;5.074;2023-01-16T13:57:56;0.45;;;0.30;;
18657;SDS011;9458;50.942;5.074;2023-01-16T14:00:35;0.55;;;0.30;;
18657;SDS011;9458;50.942;5.074;2023-01-16T14:03:16;0.47;;;0.17;;
18657;SDS011;9458;50.942;5.074;2023-01-16T14:05:50;0.40;;;0.28;;
18657;SDS011;9458;50.942;5.074;2023-01-16T14:08:43;0.43;;;0.40;;
18657;SDS011;9458;50.942;5.074;2023-01-16T14:11:34;0.50;;;0.20;;
18657;SDS011;9458;50.942;5.074;2023-01-16T14:14:22;0.80;;;0.40;;
18657;SDS011;9458;50.942;5.074;2023-01-16T14:17:17;0.52;;;0.38;;
18657;SDS011;9458;50.942;5.074;2023-01-16T14:19:56;0.40;;;0.30;;
18657;SDS011;9458;50.942;5.074;2023-01-16T14:22:25;0.30;;;0.28;;
18657;SDS011;9458;50.942;5.074;2023-01-16T14:25:20;0.30;;;0.30;;
18657;SDS011;9458;50.942;5.074;2023-01-16T14:27:51;0.32;;;0.30;;
18657;SDS011;9458;50.942;5.074;2023-01-16T14:30:28;0.60;;;0.38;;
18657;SDS011;9458;50.942;5.074;2023-01-16T14:33:02;0.95;;;0.30;;
18657;SDS011;9458;50.942;5.074;2023-01-16T14:35:40;0.20;;;0.20;;
18657;SDS011;9458;50.942;5.074;2023-01-16T14:38:13;0.52;;;0.30;;
18657;SDS011;9458;50.942;5.074;2023-01-16T14:40:46;1.85;;;0.50;;
18657;SDS011;9458;50.942;5.074;2023-01-16T14:43:42;0.30;;;0.30;;
18657;SDS011;9458;50.942;5.074;2023-01-16T14:49:58;1.95;;;0.50;;
18657;SDS011;9458;50.942;5.074;2023-01-16T14:52:56;0.30;;;0.30;;
18657;SDS011;9458;50.942;5.074;2023-01-16T14:55:57;1.10;;;0.43;;
18657;SDS011;9458;50.942;5.074;2023-01-16T14:58:34;0.50;;;0.50;;
18657;SDS011;9458;50.942;5.074;2023-01-16T15:01:07;0.55;;;0.40;;
18657;SDS011;9458;50.942;5.074;2023-01-16T15:04:03;0.50;;;0.40;;
18657;SDS011;9458;50.942;5.074;2023-01-16T15:06:40;0.45;;;0.45;;
18657;SDS011;9458;50.942;5.074;2023-01-16T15:09:13;0.43;;;0.40;;
18657;SDS011;9458;50.942;5.074;2023-01-16T15:11:46;1.10;;;0.75;;
18657;SDS011;9458;50.942;5.074;2023-01-16T15:14:21;1.02;;;0.90;;
18657;SDS011;9458;50.942;5.074;2023-01-16T15:17:10;1.40;;;0.90;;
18657;SDS011;9458;50.942;5.074;2023-01-16T15:20:05;0.65;;;0.60;;
18657;SDS011;9458;50.942;5.074;2023-01-16T15:23:00;0.60;;;0.60;;
18657;SDS011;9458;50.942;5.074;2023-01-16T15:25:42;2.83;;;0.90;;
18657;SDS011;9458;50.942;5.074;2023-01-16T15:28:19;1.13;;;1.02;;
18657;SDS011;9458;50.942;5.074;2023-01-16T15:30:57;1.33;;;1.00;;
18657;SDS011;9458;50.942;5.074;2023-01-16T15:33:27;1.30;;;0.95;;
18657;SDS011;9458;50.942;5.074;2023-01-16T15:36:19;1.10;;;0.90;;
18657;SDS011;9458;50.942;5.074;2023-01-16T15:38:49;1.58;;;0.93;;
18657;SDS011;9458;50.942;5.074;2023-01-16T15:41:19;1.00;;;0.90;;
18657;SDS011;9458;50.942;5.074;2023-01-16T15:44:13;1.77;;;1.10;;
18657;SDS011;9458;50.942;5.074;2023-01-16T15:47:13;1.73;;;1.20;;
18657;SDS011;9458;50.942;5.074;2023-01-16T15:50:00;1.73;;;1.50;;
18657;SDS011;9458;50.942;5.074;2023-01-16T15:52:37;1.98;;;1.73;;
18657;SDS011;9458;50.942;5.074;2023-01-16T15:55:16;5.35;;;1.40;;
18657;SDS011;9458;50.942;5.074;2023-01-16T16:10:56;1.00;;;1.00;;